Aérodrome :
LOGIN :

S'inscrire | Disclaimer

   EN    FR    IT 

 










Légende :    VFR   VFR Marginal   IFR   IFR Intensif   IFR Très Intensif
Visi : 
Plafond : 
>= 8 km
>= 3000ft
5 à 8 km
1000 à 3000 ft
1500m à 5 km
500 à 1000 ft
800 à 1500m
200 à 500 ft
< 800m
< 200 ft
Symboles :   Orages  Brouillard  Fortes neiges  Fortes précipitations  Vent > 20 kt
SIGMETs :   Divers  Orages  Givrage  Turbulence  Onde Orograph.  Cendres Volcan.







- Altitude de l'aérodrome : 1649 ft
- Code IATA : HHN


EDFH - Frankfurt-Hahn Rhineland-Palatinate

DERNIER METAR :
  • 211520Z 26012KT 240V300 4000 BR BKN003 05/05 Q1014

METARs EXPIRÉS :
  • 211450Z 26014KT 2500 BR BKN002 05/05 Q1014
  • 211420Z 26012KT 0500 R21/0650V1700D FG BKN001 06/06 Q1014
  • 211350Z 25014KT 230V300 0400 R21/0750V1400D -DZ FG BKN001 06/06 Q1014
  • 211320Z 26013KT 0900 R21/1400VP2000D -DZ FG BKN001 06/06 Q1014
  • 211250Z 25013KT 2500 -DZRA BR BKN002 06/06 Q1014

TAF COR TAF EDFH
Valide du 21 à 12h jusqu'au 22 à 12h UTC


211145Z 2112/2212 25015G25KT 4500 BR SCT003 BKN005
TEMPO 2112/2120 0800 -DZ FG BKN001
BECMG 2117/2121 25010KT 9000 SCT005 BKN010
TEMPO 2120/2212 2500 -DZ BR BKN003
Pas de NOTAMs connus pour ce terrain.



MET'MAP, la Météo Aéronautique d'un coup d'oeil ! - Copyright ORBIFLY Décembre 2007 - Disclaimer

ORBIFLY MET'MAP TEAM :

Programmation & Développement : Alexandra Zaïnal
Conception & Développement : Baudouin d'Aumeries
Co-Programmation & Développement : Marc-Olivier Méhu
Soutien technique & logistique : Manuel Goepfert

Contact : metmap@orbifly.com




SOURCES & CREDITS :

   NOAA